Time;durP1;ratioP1;P1;durP2;ratioP2;P2;SDS_P1;SDS_P2;PMS_P1;PMS_P2;Temp;Humidity;BMP_temperature;BMP_pressure;BME280_temperature;BME280_humidity;BME280_pressure;Samples;Min_cycle;Max_cycle;Signal;HPM_P1;HPM_P2
2021/10/02 00:33:50;;;;;;;13.95;9.05;;;;;;;7.57;64.67;102057.92;1712481;82;21719;-57
2021/10/02 00:46:49;;;;;;;15.45;8.28;;;;;;;7.62;64.32;102045.95;1709730;82;21482;-57
2021/10/02 00:49:15;;;;;;;16.73;9.08;;;;;;;7.61;64.35;102043.77;1684953;82;21104;-58
2021/10/02 00:51:43;;;;;;;15.63;10.00;;;;;;;7.58;64.57;102043.04;1709941;82;21030;-58
2021/10/02 00:54:09;;;;;;;17.80;9.75;;;;;;;7.51;64.72;102045.52;1694541;83;21132;-58
2021/10/02 00:56:36;;;;;;;20.05;12.23;;;;;;;7.45;64.85;102040.09;1695644;82;21697;-58
2021/10/02 00:59:02;;;;;;;21.95;13.10;;;;;;;7.41;64.86;102048.53;1698849;83;21051;-58
2021/10/02 01:01:36;;;;;;;22.67;13.62;;;;;;;7.38;64.82;102047.77;1713239;82;21107;-58
2021/10/02 01:05:00;;;;;;;26.42;14.38;;;;;;;7.37;64.99;102043.47;1762048;79;22631;-56
2021/10/02 01:07:58;;;;;;;18.40;12.00;;;;;;;7.30;64.94;102045.94;1731880;80;21548;-58
2021/10/02 01:10:56;;;;;;;20.95;11.75;;;;;;;7.28;65.00;102046.44;1737922;80;21018;-57
2021/10/02 01:14:03;;;;;;;23.67;14.93;;;;;;;7.24;65.05;102043.94;1740610;81;21138;-58
2021/10/02 01:16:40;;;;;;;20.45;14.38;;;;;;;7.21;65.07;102045.39;1745008;80;21508;-57
2021/10/02 01:19:28;;;;;;;23.83;16.42;;;;;;;7.22;65.07;102051.00;1746267;81;21567;-57
2021/10/02 01:22:19;;;;;;;24.87;16.95;;;;;;;7.27;65.00;102047.37;1743027;81;21040;-57
2021/10/02 01:25:09;;;;;;;25.08;17.15;;;;;;;7.30;65.17;102051.18;1736351;82;21623;-57
2021/10/02 01:27:54;;;;;;;27.02;17.25;;;;;;;7.32;65.41;102055.89;1735948;80;21187;-57
2021/10/02 01:33:26;;;;;;;26.52;17.05;;;;;;;7.28;65.27;102049.05;1737067;80;22215;-57
2021/10/02 01:35:55;;;;;;;22.62;14.75;;;;;;;7.23;65.18;102047.48;1726536;81;21082;-58
2021/10/02 01:49:08;;;;;;;20.12;14.35;;;;;;;7.11;64.71;102043.17;1738157;80;21432;-57
2021/10/02 01:51:35;;;;;;;19.80;13.75;;;;;;;7.07;64.76;102039.83;1739906;81;21831;-57
2021/10/02 01:54:02;;;;;;;21.10;13.83;;;;;;;7.03;64.87;102036.48;1713834;81;21004;-57
2021/10/02 01:56:28;;;;;;;22.05;15.05;;;;;;;7.02;64.97;102040.00;1738861;81;21196;-57
2021/10/02 01:58:56;;;;;;;22.77;14.38;;;;;;;7.05;64.98;102034.65;1718775;81;21622;-57
2021/10/02 02:01:22;;;;;;;27.73;15.30;;;;;;;7.06;65.07;102038.11;1743549;80;21509;-57
2021/10/02 02:03:53;;;;;;;27.70;15.20;;;;;;;7.08;65.16;102032.39;1736170;81;21170;-57
2021/10/02 02:06:17;;;;;;;21.62;15.63;;;;;;;7.07;65.22;102035.91;1679039;82;21177;-57
2021/10/02 02:08:43;;;;;;;23.22;14.85;;;;;;;7.04;65.16;102036.02;1736070;81;21457;-58
2021/10/02 02:11:10;;;;;;;23.95;15.28;;;;;;;7.03;65.06;102036.95;1732656;81;21091;-58
2021/10/02 02:13:37;;;;;;;21.82;15.05;;;;;;;6.99;65.01;102034.91;1733285;80;21040;-57
2021/10/02 02:16:04;;;;;;;25.82;15.70;;;;;;;6.99;65.00;102034.03;1726913;80;21586;-57
2021/10/02 02:18:32;;;;;;;24.92;15.13;;;;;;;6.95;65.13;102032.46;1734492;80;21011;-57
2021/10/02 02:21:02;;;;;;;24.10;16.05;;;;;;;6.92;65.15;102036.50;1729584;82;21038;-57
2021/10/02 02:23:28;;;;;;;20.95;14.18;;;;;;;6.88;65.30;102039.23;1731598;80;21482;-57
2021/10/02 02:25:56;;;;;;;21.02;14.10;;;;;;;6.82;65.47;102038.14;1731795;82;21106;-56
2021/10/02 02:28:22;;;;;;;22.62;14.40;;;;;;;6.84;65.52;102047.24;1730050;82;21217;-57
2021/10/02 02:30:49;;;;;;;20.50;13.55;;;;;;;6.93;65.55;102039.52;1729222;82;21261;-57
2021/10/02 02:33:19;;;;;;;21.23;14.38;;;;;;;7.01;65.29;102037.44;1699695;82;21031;-57
2021/10/02 02:35:47;;;;;;;20.72;13.38;;;;;;;7.06;65.14;102042.91;1690096;83;21086;-57
2021/10/02 02:38:13;;;;;;;23.47;13.90;;;;;;;7.09;65.17;102044.54;1656106;84;21024;-56
2021/10/02 02:40:40;;;;;;;28.25;15.18;;;;;;;7.07;65.28;102041.98;1694132;82;21223;-57
2021/10/02 02:43:08;;;;;;;23.40;14.85;;;;;;;7.03;65.37;102044.34;1689552;84;21027;-57
2021/10/02 02:45:37;;;;;;;35.17;17.42;;;;;;;6.96;65.52;102045.92;1652031;84;21079;-57
2021/10/02 02:48:12;;;;;;;28.32;15.90;;;;;;;6.88;65.90;102041.84;1736242;80;21098;-58
2021/10/02 02:50:49;;;;;;;30.85;16.57;;;;;;;6.83;66.06;102039.86;1730727;82;21023;-57
2021/10/02 02:53:45;;;;;;;26.17;16.60;;;;;;;6.76;66.04;102036.20;1726530;80;22264;-57
2021/10/02 02:56:20;;;;;;;26.35;15.50;;;;;;;6.69;66.28;102036.89;1736921;82;21060;-58
2021/10/02 02:58:55;;;;;;;23.63;16.13;;;;;;;6.70;66.25;102036.84;1732604;80;21134;-58
2021/10/02 03:01:21;;;;;;;28.80;14.43;;;;;;;6.79;66.10;102029.56;1685332;82;21082;-57
2021/10/02 03:03:50;;;;;;;26.65;16.25;;;;;;;6.85;65.93;102028.88;1720241;80;21446;-57
2021/10/02 03:06:18;;;;;;;24.20;15.55;;;;;;;6.87;65.86;102028.35;1718890;81;21215;-58
2021/10/02 03:08:48;;;;;;;26.25;15.32;;;;;;;6.91;66.01;102024.31;1724714;80;21081;-58
2021/10/02 03:11:14;;;;;;;27.27;15.85;;;;;;;6.93;65.86;102021.20;1719399;82;21425;-57
2021/10/02 03:13:42;;;;;;;26.80;16.07;;;;;;;6.94;65.77;102018.97;1717465;80;21056;-57
2021/10/02 03:16:11;;;;;;;20.92;14.83;;;;;;;6.93;65.61;102017.28;1686221;82;21039;-58
2021/10/02 03:18:41;;;;;;;24.50;15.60;;;;;;;6.91;65.39;102019.08;1716098;80;21095;-60
2021/10/02 03:21:08;;;;;;;27.85;16.48;;;;;;;6.85;65.24;102020.18;1719994;82;21133;-58
2021/10/02 03:23:34;;;;;;;24.60;15.25;;;;;;;6.80;65.41;102011.19;1722362;82;21537;-59
2021/10/02 03:26:02;;;;;;;22.52;13.62;;;;;;;6.79;65.51;102007.31;1720385;81;20996;-59
2021/10/02 03:28:29;;;;;;;21.90;13.93;;;;;;;6.79;65.49;102011.25;1688425;82;21079;-58
2021/10/02 03:30:57;;;;;;;20.00;12.45;;;;;;;6.77;65.46;102009.99;1690231;83;21834;-58
2021/10/02 03:33:24;;;;;;;17.15;10.90;;;;;;;6.77;65.31;102015.22;1692972;82;21533;-58
2021/10/02 03:35:51;;;;;;;19.80;12.07;;;;;;;6.79;65.26;102011.25;1642432;84;21075;-57
2021/10/02 03:38:17;;;;;;;21.57;12.35;;;;;;;6.80;65.27;102019.04;1647419;85;21457;-58
2021/10/02 03:40:45;;;;;;;21.17;14.33;;;;;;;6.80;65.38;102019.50;1669280;85;21422;-59
2021/10/02 03:43:13;;;;;;;19.70;12.33;;;;;;;6.76;65.53;102012.23;1722993;80;21588;-59
2021/10/02 03:45:40;;;;;;;23.30;15.63;;;;;;;6.71;65.58;102015.48;1717160;82;21034;-59
2021/10/02 03:48:06;;;;;;;23.55;15.00;;;;;;;6.67;65.69;102021.72;1722035;81;21473;-60
2021/10/02 03:50:35;;;;;;;25.15;15.15;;;;;;;6.61;65.77;102015.43;1698402;82;21736;-59
2021/10/02 03:53:01;;;;;;;25.45;16.32;;;;;;;6.58;65.96;102015.53;1710957;82;20980;-58
2021/10/02 03:55:28;;;;;;;24.32;14.38;;;;;;;6.55;65.99;102016.95;1723703;80;21092;-58
2021/10/02 03:57:55;;;;;;;23.25;14.25;;;;;;;6.50;66.02;102014.03;1720232;81;21576;-59
2021/10/02 04:00:21;;;;;;;25.82;15.03;;;;;;;6.45;66.12;102010.73;1726303;80;21027;-60
2021/10/02 04:02:48;;;;;;;21.68;14.73;;;;;;;6.43;66.30;102015.64;1708147;80;21004;-59
2021/10/02 04:05:15;;;;;;;25.48;15.20;;;;;;;6.45;66.30;102013.35;1698674;82;21523;-59
2021/10/02 04:07:41;;;;;;;21.17;13.78;;;;;;;6.54;66.28;102006.08;1726265;81;22490;-58
2021/10/02 04:10:08;;;;;;;21.55;13.83;;;;;;;6.61;66.14;102012.34;1702237;82;21024;-58
2021/10/02 04:12:36;;;;;;;20.62;14.43;;;;;;;6.69;66.08;102014.66;1725248;82;20962;-59
2021/10/02 04:15:03;;;;;;;26.52;14.73;;;;;;;6.75;66.08;102009.67;1706381;82;21003;-60
2021/10/02 04:17:30;;;;;;;23.12;14.50;;;;;;;6.76;66.07;102014.84;1724764;80;20924;-58
2021/10/02 04:19:57;;;;;;;20.75;14.15;;;;;;;6.76;65.90;102013.54;1669894;84;21055;-59
2021/10/02 04:22:25;;;;;;;26.15;15.13;;;;;;;6.76;65.88;102014.84;1690324;82;21028;-59
2021/10/02 04:24:51;;;;;;;23.22;15.08;;;;;;;6.72;65.90;102013.23;1726751;80;21584;-58
2021/10/02 04:27:17;;;;;;;25.17;14.80;;;;;;;6.66;65.88;102016.95;1708999;82;21035;-58
2021/10/02 04:29:45;;;;;;;21.87;14.00;;;;;;;6.61;66.01;102016.73;1725137;81;20973;-59
2021/10/02 04:32:11;;;;;;;20.35;14.15;;;;;;;6.56;66.12;102008.20;1726244;81;21177;-58
2021/10/02 04:34:39;;;;;;;25.80;16.17;;;;;;;6.49;66.24;102003.20;1724279;80;21624;-58
2021/10/02 04:37:05;;;;;;;29.18;14.83;;;;;;;6.46;66.41;102004.61;1709845;82;21102;-57
2021/10/02 04:39:34;;;;;;;25.52;14.93;;;;;;;6.47;66.40;102011.56;1703743;82;21039;-58
2021/10/02 04:42:00;;;;;;;22.77;14.18;;;;;;;6.56;66.36;102007.75;1722449;82;21043;-58
2021/10/02 04:44:27;;;;;;;20.00;13.68;;;;;;;6.63;66.29;102010.52;1649555;84;21750;-58
2021/10/02 04:46:53;;;;;;;23.70;14.05;;;;;;;6.68;66.38;102012.51;1726666;82;21649;-58
2021/10/02 04:49:20;;;;;;;25.17;15.43;;;;;;;6.66;66.54;102011.72;1726561;81;21081;-58
2021/10/02 04:51:49;;;;;;;25.55;16.00;;;;;;;6.66;66.73;102014.33;1728325;80;21071;-58
2021/10/02 04:54:16;;;;;;;22.30;14.60;;;;;;;6.67;66.79;102018.67;1724101;81;21046;-58
2021/10/02 04:56:45;;;;;;;24.52;15.45;;;;;;;6.63;66.78;102016.22;1724757;82;21132;-58
2021/10/02 04:59:11;;;;;;;24.10;15.88;;;;;;;6.60;67.09;102017.63;1703175;82;21817;-59
2021/10/02 05:01:38;;;;;;;26.55;15.30;;;;;;;6.58;67.21;102018.99;1725582;81;21178;-60
2021/10/02 05:04:05;;;;;;;23.85;13.93;;;;;;;6.55;67.34;102019.10;1710021;82;21024;-58
2021/10/02 05:06:32;;;;;;;28.25;14.23;;;;;;;6.62;67.50;102019.30;1723817;81;21018;-57
2021/10/02 05:08:58;;;;;;;21.37;14.33;;;;;;;6.77;67.41;102017.00;1728875;81;21816;-57
2021/10/02 05:11:24;;;;;;;21.05;13.80;;;;;;;6.89;67.46;102012.59;1726674;82;20992;-57
2021/10/02 05:13:51;;;;;;;21.93;13.90;;;;;;;7.04;67.54;102017.26;1721192;82;21028;-58
2021/10/02 05:16:17;;;;;;;25.50;15.23;;;;;;;7.13;67.48;102019.97;1726136;82;21018;-58
2021/10/02 05:18:45;;;;;;;26.10;15.32;;;;;;;7.20;67.46;102025.34;1702134;82;20983;-59
2021/10/02 05:21:11;;;;;;;20.08;13.70;;;;;;;7.27;67.62;102022.03;1711105;81;21497;-58
2021/10/02 05:23:37;;;;;;;19.57;14.80;;;;;;;7.33;67.62;102020.92;1645427;85;21118;-58
2021/10/02 05:26:04;;;;;;;23.38;13.43;;;;;;;7.37;67.68;102024.67;1671511;84;21126;-58
2021/10/02 05:28:30;;;;;;;20.23;14.20;;;;;;;7.43;67.69;102026.17;1663860;83;21088;-58
2021/10/02 05:30:57;;;;;;;22.15;13.93;;;;;;;7.47;67.63;102021.70;1725324;81;21013;-58
2021/10/02 05:33:23;;;;;;;20.02;12.95;;;;;;;7.53;67.65;102027.53;1723648;82;21840;-58
2021/10/02 05:35:50;;;;;;;19.48;12.78;;;;;;;7.65;67.71;102026.61;1726034;82;21055;-58
2021/10/02 05:38:20;;;;;;;17.50;12.85;;;;;;;7.84;67.61;102029.34;1723593;81;21040;-58
2021/10/02 05:40:44;;;;;;;19.17;11.55;;;;;;;7.99;67.52;102030.83;1727509;82;20971;-59
2021/10/02 05:43:11;;;;;;;23.07;12.20;;;;;;;8.13;67.25;102027.61;1706496;80;20989;-58
2021/10/02 05:45:37;;;;;;;20.40;12.80;;;;;;;8.28;67.02;102031.80;1727290;81;21537;-59
2021/10/02 05:48:04;;;;;;;20.17;13.78;;;;;;;8.37;66.78;102032.69;1690939;84;21016;-59
2021/10/02 05:50:30;;;;;;;20.75;12.60;;;;;;;8.46;66.41;102027.09;1728145;82;21520;-58
2021/10/02 05:52:57;;;;;;;19.87;12.37;;;;;;;8.55;66.11;102026.66;1697296;80;21053;-59
2021/10/02 05:55:23;;;;;;;19.48;12.80;;;;;;;8.64;65.70;102025.41;1703766;82;21761;-59
2021/10/02 05:57:49;;;;;;;24.32;12.50;;;;;;;8.71;65.46;102023.36;1709986;82;21195;-58
2021/10/02 06:00:15;;;;;;;23.70;13.78;;;;;;;8.77;65.16;102021.74;1726579;80;21517;-59
2021/10/02 06:02:43;;;;;;;19.60;12.88;;;;;;;8.84;65.05;102026.25;1725308;82;21107;-59
2021/10/02 06:05:09;;;;;;;25.95;11.75;;;;;;;8.91;64.82;102028.53;1714441;80;21047;-59
2021/10/02 06:07:36;;;;;;;20.37;12.23;;;;;;;8.99;64.56;102032.56;1726483;80;21035;-59
2021/10/02 06:10:03;;;;;;;21.30;11.38;;;;;;;9.10;64.11;102032.91;1698208;82;21050;-60
2021/10/02 06:12:33;;;;;;;18.35;11.75;;;;;;;9.26;63.53;102042.20;1720877;80;21051;-59
2021/10/02 06:14:59;;;;;;;21.60;12.28;;;;;;;9.38;63.28;102032.44;1720513;81;21101;-59
2021/10/02 06:17:25;;;;;;;18.37;12.23;;;;;;;9.49;63.28;102030.12;1726666;80;21111;-58
2021/10/02 06:19:52;;;;;;;28.40;13.85;;;;;;;9.60;62.99;102033.98;1718193;82;21091;-59
2021/10/02 06:22:18;;;;;;;24.40;13.28;;;;;;;9.68;62.82;102033.15;1705871;82;21579;-60
2021/10/02 06:24:45;;;;;;;18.80;12.28;;;;;;;9.78;62.62;102034.86;1723533;82;21015;-61
2021/10/02 06:27:11;;;;;;;19.25;12.23;;;;;;;9.85;62.56;102040.19;1722151;80;21556;-59
2021/10/02 06:29:38;;;;;;;20.85;13.75;;;;;;;9.94;62.30;102042.84;1667984;84;21090;-59
2021/10/02 06:32:06;;;;;;;18.98;12.90;;;;;;;9.99;62.17;102035.56;1721571;81;21050;-58
2021/10/02 06:34:33;;;;;;;27.62;13.10;;;;;;;10.04;62.10;102037.49;1718869;80;21146;-59
2021/10/02 06:36:59;;;;;;;18.90;12.25;;;;;;;10.09;62.02;102032.84;1725413;81;21102;-59
2021/10/02 06:39:26;;;;;;;17.00;12.05;;;;;;;10.11;62.08;102029.66;1725507;80;21441;-59
2021/10/02 06:41:53;;;;;;;17.45;12.03;;;;;;;10.17;62.32;102033.73;1724024;82;21059;-59
2021/10/02 06:44:20;;;;;;;21.25;12.85;;;;;;;10.29;62.34;102033.56;1723911;80;22230;-60
2021/10/02 06:46:47;;;;;;;22.05;13.08;;;;;;;10.38;62.15;102037.92;1664111;84;21149;-60
2021/10/02 06:49:13;;;;;;;18.30;12.10;;;;;;;10.49;62.05;102037.36;1723446;80;21044;-60
2021/10/02 06:51:40;;;;;;;21.15;13.68;;;;;;;10.56;62.15;102037.89;1664191;84;21083;-59
2021/10/02 06:54:06;;;;;;;17.70;12.07;;;;;;;10.63;62.02;102036.62;1662471;83;21356;-58
2021/10/02 06:56:36;;;;;;;18.02;11.30;;;;;;;10.71;61.89;102042.80;1661010;85;22230;-59
2021/10/02 06:59:02;;;;;;;18.52;12.75;;;;;;;10.75;61.86;102041.21;1717576;82;21233;-59
2021/10/02 07:01:31;;;;;;;20.05;11.63;;;;;;;10.84;62.05;102037.70;1722146;82;21019;-61
2021/10/02 07:03:57;;;;;;;15.78;11.22;;;;;;;10.90;61.86;102040.00;1724593;80;21046;-61
2021/10/02 07:06:25;;;;;;;19.15;12.18;;;;;;;10.91;61.82;102043.00;1689708;82;20970;-61
2021/10/02 07:08:52;;;;;;;16.82;12.13;;;;;;;10.94;62.07;102039.76;1685919;82;21669;-60
2021/10/02 07:11:20;;;;;;;18.57;12.03;;;;;;;11.04;62.05;102040.55;1688427;82;21121;-58
2021/10/02 07:13:46;;;;;;;16.70;11.53;;;;;;;11.19;61.94;102035.73;1685205;82;20991;-59
2021/10/02 07:16:15;;;;;;;15.78;11.50;;;;;;;11.33;61.84;102036.27;1691568;82;21038;-57
2021/10/02 07:18:41;;;;;;;17.05;11.75;;;;;;;11.42;61.54;102033.12;1692160;84;20998;-58
2021/10/02 07:21:08;;;;;;;17.52;11.20;;;;;;;11.46;61.69;102029.83;1657533;84;21119;-58
2021/10/02 07:23:37;;;;;;;17.73;13.15;;;;;;;11.55;61.83;102033.27;1682330;82;21002;-58
2021/10/02 07:26:03;;;;;;;15.98;11.18;;;;;;;11.62;61.59;102031.97;1659251;84;21041;-57
2021/10/02 07:28:31;;;;;;;19.37;11.05;;;;;;;11.67;61.50;102031.23;1661644;84;20986;-59
2021/10/02 07:30:58;;;;;;;19.45;12.23;;;;;;;11.72;61.13;102028.33;1680202;82;21062;-58
2021/10/02 07:33:24;;;;;;;17.90;11.57;;;;;;;11.77;61.19;102026.72;1677940;84;21778;-58
2021/10/02 07:35:51;;;;;;;18.02;10.78;;;;;;;11.79;61.27;102023.55;1678647;83;22774;-58
2021/10/02 07:38:18;;;;;;;18.32;10.48;;;;;;;11.89;61.32;102026.02;1684278;83;21009;-59
2021/10/02 07:40:45;;;;;;;16.60;10.50;;;;;;;12.01;61.07;102014.75;1687218;83;21085;-59
2021/10/02 07:43:12;;;;;;;19.77;11.48;;;;;;;12.16;61.09;102026.66;1676691;83;21058;-59
2021/10/02 07:45:40;;;;;;;25.08;12.18;;;;;;;12.29;61.09;102020.14;1653786;83;21040;-59
2021/10/02 07:48:07;;;;;;;22.73;11.00;;;;;;;12.41;60.69;102020.73;1682721;83;21135;-59
2021/10/02 07:50:33;;;;;;;19.55;10.32;;;;;;;12.50;60.47;102019.30;1684589;83;21981;-60
2021/10/02 07:52:59;;;;;;;19.05;11.55;;;;;;;12.57;60.25;102021.94;1683047;83;20987;-57
2021/10/02 07:55:26;;;;;;;21.15;10.18;;;;;;;12.65;59.88;102013.06;1681055;83;21660;-59
2021/10/02 07:57:53;;;;;;;16.80;11.22;;;;;;;12.76;59.85;102013.23;1685098;83;22269;-58
2021/10/02 08:00:20;;;;;;;18.25;11.25;;;;;;;12.85;59.86;102009.64;1658385;84;21105;-59
2021/10/02 08:02:52;;;;;;;15.95;11.38;;;;;;;12.92;59.88;102011.78;1653348;83;21078;-57
2021/10/02 08:05:19;;;;;;;16.82;10.82;;;;;;;12.98;59.47;102011.39;1687935;83;21047;-58
2021/10/02 08:07:47;;;;;;;18.12;11.68;;;;;;;13.03;59.24;102008.46;1733042;81;21102;-59
2021/10/02 08:10:16;;;;;;;18.23;10.98;;;;;;;13.10;58.94;102004.47;1730650;80;21094;-58
2021/10/02 08:12:42;;;;;;;17.23;10.88;;;;;;;13.18;58.83;102009.27;1730939;80;21137;-59
2021/10/02 08:15:13;;;;;;;17.90;9.85;;;;;;;13.32;58.44;102004.42;1733790;80;21090;-59
2021/10/02 08:17:41;;;;;;;16.35;9.40;;;;;;;13.49;58.21;102000.17;1730574;80;21108;-59
2021/10/02 08:20:13;;;;;;;22.13;10.13;;;;;;;13.64;57.77;102000.11;1736597;82;21044;-58
2021/10/02 08:22:46;;;;;;;18.20;10.13;;;;;;;13.78;57.83;102002.66;1731634;82;21060;-58
2021/10/02 08:25:15;;;;;;;13.53;8.98;;;;;;;13.91;57.56;101996.89;1730042;81;21647;-57
2021/10/02 08:27:43;;;;;;;16.35;9.55;;;;;;;14.05;57.36;101994.61;1703992;82;21058;-58
2021/10/02 08:30:13;;;;;;;14.73;9.60;;;;;;;14.19;57.21;101998.98;1733848;80;21320;-59
2021/10/02 08:32:41;;;;;;;17.98;10.45;;;;;;;14.30;56.78;102003.02;1734715;80;21094;-60
2021/10/02 08:35:09;;;;;;;24.65;10.58;;;;;;;14.39;56.33;102002.87;1733779;82;21082;-57
2021/10/02 08:37:37;;;;;;;13.68;8.80;;;;;;;14.44;55.83;102002.53;1694418;82;21079;-59
2021/10/02 08:40:09;;;;;;;16.42;10.48;;;;;;;14.47;55.70;102003.19;1734633;82;21051;-58
2021/10/02 08:42:37;;;;;;;15.38;9.00;;;;;;;14.54;55.78;102002.73;1733987;81;21002;-58
2021/10/02 08:45:06;;;;;;;16.05;8.63;;;;;;;14.59;55.13;101998.84;1736309;80;21345;-59
2021/10/02 08:47:43;;;;;;;20.08;9.18;;;;;;;14.60;54.50;101997.88;1711130;82;21149;-58
2021/10/02 08:50:13;;;;;;;11.97;8.03;;;;;;;14.64;54.57;101998.05;1731162;80;22151;-60
2021/10/02 08:52:40;;;;;;;12.15;7.05;;;;;;;14.71;54.34;101993.60;1735703;82;21398;-57
2021/10/02 08:55:08;;;;;;;16.75;7.17;;;;;;;14.79;53.63;101993.45;1739852;80;21098;-58
2021/10/02 08:57:35;;;;;;;10.80;6.30;;;;;;;14.88;53.11;101989.27;1706851;82;21039;-59
2021/10/02 09:00:13;;;;;;;11.73;6.95;;;;;;;14.96;52.67;101990.89;1730983;82;21074;-58
2021/10/02 09:02:40;;;;;;;13.18;6.15;;;;;;;15.04;52.50;101984.52;1710725;82;21115;-58
2021/10/02 09:05:10;;;;;;;12.68;5.67;;;;;;;15.12;51.97;101984.45;1734019;81;21107;-57
2021/10/02 09:07:36;;;;;;;9.23;5.40;;;;;;;15.17;51.48;101980.98;1726310;81;21046;-59
2021/10/02 09:10:06;;;;;;;12.07;5.75;;;;;;;15.24;51.33;101984.86;1724631;82;21094;-57
2021/10/02 09:12:36;;;;;;;10.18;4.97;;;;;;;15.31;50.72;101972.83;1718711;81;21604;-59
2021/10/02 09:15:03;;;;;;;8.85;5.10;;;;;;;15.38;49.86;101975.41;1705988;82;21592;-59
2021/10/02 09:17:32;;;;;;;8.53;4.55;;;;;;;15.45;49.14;101969.16;1724186;81;21627;-60
2021/10/02 09:20:00;;;;;;;10.30;5.05;;;;;;;15.51;48.87;101968.67;1721986;81;21612;-58
2021/10/02 09:22:27;;;;;;;9.18;4.33;;;;;;;15.58;48.69;101979.21;1721219;81;21089;-59
2021/10/02 09:24:56;;;;;;;10.80;5.25;;;;;;;15.66;48.50;101969.31;1716405;81;21071;-57
2021/10/02 09:27:26;;;;;;;7.87;4.20;;;;;;;15.75;48.10;101970.41;1662035;82;21689;-58
2021/10/02 09:30:11;;;;;;;7.28;3.72;;;;;;;15.82;47.30;101968.17;1722908;82;21057;-58
2021/10/02 09:32:44;;;;;;;6.95;3.65;;;;;;;15.88;47.11;101965.05;1719190;82;21054;-58
2021/10/02 09:35:21;;;;;;;11.78;3.17;;;;;;;15.95;46.33;101962.27;1722571;82;21075;-58
2021/10/02 09:37:54;;;;;;;7.78;2.98;;;;;;;16.01;45.09;101960.97;1721578;81;21422;-58
2021/10/02 09:40:24;;;;;;;6.15;3.35;;;;;;;16.09;44.50;101959.40;1724193;80;21662;-58
2021/10/02 09:42:58;;;;;;;6.00;2.67;;;;;;;16.19;44.02;101953.34;1727240;82;21893;-57
2021/10/02 09:45:30;;;;;;;7.67;3.00;;;;;;;16.29;43.88;101960.95;1705541;82;21114;-57
2021/10/02 09:48:01;;;;;;;5.90;2.80;;;;;;;16.38;44.05;101954.08;1703502;82;21070;-56
2021/10/02 09:50:31;;;;;;;5.25;2.60;;;;;;;16.43;43.70;101950.08;1728938;81;21646;-56
2021/10/02 09:53:07;;;;;;;6.35;2.83;;;;;;;16.49;43.14;101956.23;1704508;82;21058;-57
2021/10/02 09:55:45;;;;;;;5.45;2.60;;;;;;;16.56;43.05;101945.96;1718593;82;21074;-57
2021/10/02 09:58:31;;;;;;;6.90;3.50;;;;;;;16.62;42.22;101944.12;1725911;80;22141;-58
2021/10/02 10:01:04;;;;;;;5.12;2.60;;;;;;;16.65;42.08;101939.05;1724323;81;21519;-60
2021/10/02 10:03:42;;;;;;;6.20;2.77;;;;;;;16.66;42.00;101938.06;1706874;82;22278;-57
2021/10/02 10:06:23;;;;;;;5.78;2.50;;;;;;;16.70;42.01;101930.22;1724821;80;21176;-58
2021/10/02 10:09:08;;;;;;;6.20;2.40;;;;;;;16.73;41.69;101935.29;1703839;82;21110;-56
2021/10/02 10:11:40;;;;;;;;;;;;;;;16.79;41.60;101932.11;1734297;80;21076;-58
2021/10/02 10:14:07;;;;;;;5.20;2.30;;;;;;;16.84;40.55;101926.42;1734187;80;20198;-58
2021/10/02 10:16:38;;;;;;;5.45;2.20;;;;;;;16.80;40.65;101928.98;1737885;80;21012;-58
2021/10/02 10:19:19;;;;;;;4.87;2.20;;;;;;;16.84;40.60;101921.97;1727366;80;21094;-56
2021/10/02 10:22:14;;;;;;;5.55;2.67;;;;;;;16.91;39.98;101913.00;1732012;80;21489;-57
2021/10/02 10:24:44;;;;;;;6.42;2.70;;;;;;;16.97;40.67;101915.66;1730496;80;21019;-57
2021/10/02 10:27:10;;;;;;;6.85;3.27;;;;;;;17.04;40.65;101911.52;1697176;82;21038;-57
2021/10/02 10:29:42;;;;;;;6.78;3.70;;;;;;;17.11;40.97;101906.03;1733908;82;21400;-57
2021/10/02 10:32:10;;;;;;;7.33;4.00;;;;;;;17.16;40.59;101906.48;1734282;80;21680;-56
2021/10/02 10:34:40;;;;;;;9.60;3.98;;;;;;;17.23;41.40;101905.02;1736751;80;21029;-58
2021/10/02 10:37:10;;;;;;;6.97;3.52;;;;;;;17.29;41.29;101900.16;1698711;82;20984;-58
2021/10/02 10:39:38;;;;;;;7.15;3.65;;;;;;;17.33;41.87;101896.25;1724523;80;21568;-58
2021/10/02 10:42:05;;;;;;;6.20;3.12;;;;;;;17.42;41.19;101899.47;1710912;82;21007;-58
2021/10/02 10:44:32;;;;;;;6.20;3.10;;;;;;;17.49;40.63;101892.64;1734812;82;21074;-57
2021/10/02 10:46:59;;;;;;;7.03;3.95;;;;;;;17.56;41.42;101893.80;1699702;82;20991;-57
2021/10/02 10:49:25;;;;;;;7.28;3.67;;;;;;;17.63;40.94;101890.98;1731911;80;21542;-58
2021/10/02 10:51:52;;;;;;;6.03;3.27;;;;;;;17.68;40.73;101888.40;1706548;80;21075;-56
2021/10/02 10:54:20;;;;;;;7.90;3.47;;;;;;;17.72;40.09;101885.34;1667908;82;21389;-58
2021/10/02 10:56:54;;;;;;;6.62;3.62;;;;;;;17.76;40.25;101886.75;1736520;82;21138;-57
2021/10/02 10:59:19;;;;;;;5.50;2.87;;;;;;;17.80;40.47;101887.33;1733957;82;21090;-57
2021/10/02 11:01:47;;;;;;;6.67;3.42;;;;;;;17.87;40.36;101886.33;1735108;80;21708;-57
2021/10/02 11:04:40;;;;;;;6.85;3.25;;;;;;;17.94;40.06;101891.50;1737001;80;21047;-57
2021/10/02 11:07:13;;;;;;;5.25;2.45;;;;;;;17.97;39.22;101884.08;1690704;82;21042;-57
2021/10/02 11:09:44;;;;;;;5.53;2.72;;;;;;;18.01;39.11;101876.16;1701509;82;21727;-57
2021/10/02 11:12:12;;;;;;;9.00;3.08;;;;;;;18.03;38.70;101877.86;1701168;82;21528;-57
2021/10/02 11:14:56;;;;;;;6.08;3.08;;;;;;;18.05;38.38;101877.23;1707488;82;21076;-58
2021/10/02 11:17:36;;;;;;;7.40;3.27;;;;;;;18.07;38.60;101881.45;1700394;82;21078;-58
2021/10/02 11:20:22;;;;;;;6.58;3.55;;;;;;;18.11;38.85;101884.69;1699405;82;21330;-56
2021/10/02 11:23:15;;;;;;;7.85;3.47;;;;;;;18.16;38.45;101876.63;1689004;82;21066;-56
2021/10/02 11:25:44;;;;;;;6.87;3.58;;;;;;;18.23;38.69;101872.09;1651601;82;22141;-57
2021/10/02 11:28:27;;;;;;;7.40;2.90;;;;;;;18.27;38.28;101867.67;1701057;82;21141;-57
2021/10/02 11:30:55;;;;;;;7.65;3.58;;;;;;;18.30;37.69;101863.91;1703455;82;21083;-57
2021/10/02 11:33:45;;;;;;;5.85;3.00;;;;;;;18.28;37.32;101861.38;1704832;82;21564;-57
2021/10/02 11:36:35;;;;;;;6.17;3.30;;;;;;;18.31;38.08;101860.27;1694301;83;21208;-56
2021/10/02 11:39:16;;;;;;;8.98;3.10;;;;;;;18.39;38.06;101865.72;1677453;82;21106;-58
2021/10/02 11:41:45;;;;;;;5.42;2.92;;;;;;;18.45;38.48;101865.19;1696900;82;21055;-57
2021/10/02 11:44:12;;;;;;;6.00;3.00;;;;;;;18.52;37.73;101852.14;1674585;82;22029;-57
2021/10/02 11:46:41;;;;;;;4.92;2.37;;;;;;;18.58;37.18;101848.94;1710236;81;21019;-57
2021/10/02 11:49:19;;;;;;;6.87;2.92;;;;;;;18.65;36.89;101843.89;1732179;82;21880;-57
2021/10/02 11:52:12;;;;;;;7.25;3.22;;;;;;;18.73;36.77;101848.86;1705142;82;22298;-56
2021/10/02 11:54:39;;;;;;;6.97;2.67;;;;;;;18.82;37.70;101847.67;1705144;82;21058;-57
2021/10/02 11:57:09;;;;;;;7.70;2.58;;;;;;;18.88;36.70;101839.97;1698037;82;21747;-56
2021/10/02 11:59:46;;;;;;;8.10;2.95;;;;;;;18.98;36.14;101845.78;1709721;82;21047;-56
2021/10/02 12:02:13;;;;;;;8.63;2.83;;;;;;;19.04;36.12;101841.21;1705511;82;22009;-57
2021/10/02 12:04:40;;;;;;;4.80;2.12;;;;;;;19.11;35.62;101832.51;1707735;82;22016;-57
2021/10/02 12:07:07;;;;;;;7.22;3.17;;;;;;;19.11;35.25;101829.84;1719807;80;21038;-58
2021/10/02 12:09:33;;;;;;;5.80;2.92;;;;;;;19.14;35.18;101831.86;1737716;80;21512;-57
2021/10/02 12:12:02;;;;;;;6.03;2.98;;;;;;;19.16;35.04;101829.38;1740775;82;21637;-57
2021/10/02 12:14:30;;;;;;;6.70;2.92;;;;;;;19.19;34.84;101829.10;1735853;82;21508;-58
2021/10/02 12:17:02;;;;;;;9.83;3.22;;;;;;;19.26;35.17;101824.03;1730320;80;21059;-58
2021/10/02 12:19:30;;;;;;;7.12;2.75;;;;;;;19.36;35.41;101828.01;1707021;82;21051;-57
2021/10/02 12:22:02;;;;;;;5.90;2.72;;;;;;;19.41;35.06;101829.75;1738749;82;21117;-56
2021/10/02 12:24:31;;;;;;;8.40;2.90;;;;;;;19.46;34.74;101819.47;1739187;80;21003;-57
2021/10/02 12:27:02;;;;;;;10.93;2.65;;;;;;;19.57;34.63;101825.11;1738081;82;21168;-58
2021/10/02 12:29:48;;;;;;;6.17;3.05;;;;;;;19.64;35.00;101819.05;1717027;82;21544;-57